sensor_id;sensor_type;location;lat;lon;timestamp;P1;durP1;ratioP1;P2;durP2;ratioP2
46643;SDS011;32371;51.032;5.816;2023-05-14T00:01:40;4.95;;;3.03;;
46643;SDS011;32371;51.032;5.816;2023-05-14T00:04:05;4.13;;;2.83;;
46643;SDS011;32371;51.032;5.816;2023-05-14T00:06:31;5.03;;;3.22;;
46643;SDS011;32371;51.032;5.816;2023-05-14T00:08:56;3.03;;;2.72;;
46643;SDS011;32371;51.032;5.816;2023-05-14T00:11:22;4.45;;;3.50;;
46643;SDS011;32371;51.032;5.816;2023-05-14T00:13:48;4.63;;;3.47;;
46643;SDS011;32371;51.032;5.816;2023-05-14T00:16:14;4.38;;;2.45;;
46643;SDS011;32371;51.032;5.816;2023-05-14T00:18:40;1.80;;;1.70;;
46643;SDS011;32371;51.032;5.816;2023-05-14T00:21:05;2.15;;;1.83;;
46643;SDS011;32371;51.032;5.816;2023-05-14T00:23:31;2.72;;;2.25;;
46643;SDS011;32371;51.032;5.816;2023-05-14T00:25:56;5.75;;;3.88;;
46643;SDS011;32371;51.032;5.816;2023-05-14T00:28:21;3.28;;;2.83;;
46643;SDS011;32371;51.032;5.816;2023-05-14T00:30:47;7.30;;;3.60;;
46643;SDS011;32371;51.032;5.816;2023-05-14T00:33:12;5.40;;;3.80;;
46643;SDS011;32371;51.032;5.816;2023-05-14T00:35:37;6.15;;;3.85;;
46643;SDS011;32371;51.032;5.816;2023-05-14T00:38:03;3.05;;;2.75;;
46643;SDS011;32371;51.032;5.816;2023-05-14T00:40:28;3.83;;;2.80;;
46643;SDS011;32371;51.032;5.816;2023-05-14T00:42:54;3.30;;;2.80;;
46643;SDS011;32371;51.032;5.816;2023-05-14T00:45:20;3.95;;;3.13;;
46643;SDS011;32371;51.032;5.816;2023-05-14T00:47:46;3.28;;;2.97;;
46643;SDS011;32371;51.032;5.816;2023-05-14T00:50:12;3.92;;;2.90;;
46643;SDS011;32371;51.032;5.816;2023-05-14T00:52:39;7.00;;;3.70;;
46643;SDS011;32371;51.032;5.816;2023-05-14T00:55:05;5.90;;;4.10;;
46643;SDS011;32371;51.032;5.816;2023-05-14T00:57:31;5.55;;;4.07;;
46643;SDS011;32371;51.032;5.816;2023-05-14T00:59:58;4.80;;;4.00;;
46643;SDS011;32371;51.032;5.816;2023-05-14T01:02:23;5.22;;;3.85;;
46643;SDS011;32371;51.032;5.816;2023-05-14T01:04:49;4.97;;;4.05;;
46643;SDS011;32371;51.032;5.816;2023-05-14T01:09:57;5.82;;;3.38;;
46643;SDS011;32371;51.032;5.816;2023-05-14T01:12:38;9.05;;;3.75;;
46643;SDS011;32371;51.032;5.816;2023-05-14T01:15:21;7.55;;;3.92;;
46643;SDS011;32371;51.032;5.816;2023-05-14T01:17:53;8.60;;;3.30;;
46643;SDS011;32371;51.032;5.816;2023-05-14T01:20:20;10.90;;;3.77;;
46643;SDS011;32371;51.032;5.816;2023-05-14T01:22:46;4.65;;;3.25;;
46643;SDS011;32371;51.032;5.816;2023-05-14T01:25:11;3.55;;;3.08;;
46643;SDS011;32371;51.032;5.816;2023-05-14T01:27:39;5.35;;;3.15;;
46643;SDS011;32371;51.032;5.816;2023-05-14T01:32:47;3.22;;;2.40;;
46643;SDS011;32371;51.032;5.816;2023-05-14T01:35:13;6.95;;;3.72;;
46643;SDS011;32371;51.032;5.816;2023-05-14T01:37:38;3.65;;;2.80;;
46643;SDS011;32371;51.032;5.816;2023-05-14T01:40:05;8.10;;;1.80;;
46643;SDS011;32371;51.032;5.816;2023-05-14T01:42:31;5.30;;;2.13;;
46643;SDS011;32371;51.032;5.816;2023-05-14T01:44:56;7.50;;;2.42;;
46643;SDS011;32371;51.032;5.816;2023-05-14T01:47:21;2.28;;;1.90;;
46643;SDS011;32371;51.032;5.816;2023-05-14T01:49:47;4.53;;;3.58;;
46643;SDS011;32371;51.032;5.816;2023-05-14T01:52:12;4.25;;;3.05;;
46643;SDS011;32371;51.032;5.816;2023-05-14T01:54:38;3.75;;;3.35;;
46643;SDS011;32371;51.032;5.816;2023-05-14T01:57:03;5.38;;;3.25;;
46643;SDS011;32371;51.032;5.816;2023-05-14T01:59:28;3.95;;;3.00;;
46643;SDS011;32371;51.032;5.816;2023-05-14T02:01:54;4.60;;;3.58;;
46643;SDS011;32371;51.032;5.816;2023-05-14T02:04:20;12.15;;;4.00;;
46643;SDS011;32371;51.032;5.816;2023-05-14T02:06:45;8.20;;;4.50;;
46643;SDS011;32371;51.032;5.816;2023-05-14T02:09:10;6.72;;;4.00;;
46643;SDS011;32371;51.032;5.816;2023-05-14T02:11:36;5.63;;;4.00;;
46643;SDS011;32371;51.032;5.816;2023-05-14T02:14:01;4.45;;;3.42;;
46643;SDS011;32371;51.032;5.816;2023-05-14T02:16:26;4.38;;;3.85;;
46643;SDS011;32371;51.032;5.816;2023-05-14T02:18:52;8.43;;;4.40;;
46643;SDS011;32371;51.032;5.816;2023-05-14T02:21:17;5.47;;;4.13;;
46643;SDS011;32371;51.032;5.816;2023-05-14T02:23:43;4.05;;;3.03;;
46643;SDS011;32371;51.032;5.816;2023-05-14T02:26:09;5.05;;;3.08;;
46643;SDS011;32371;51.032;5.816;2023-05-14T02:28:35;4.43;;;2.75;;
46643;SDS011;32371;51.032;5.816;2023-05-14T02:31:00;4.38;;;3.85;;
46643;SDS011;32371;51.032;5.816;2023-05-14T02:33:26;9.40;;;3.90;;
46643;SDS011;32371;51.032;5.816;2023-05-14T02:35:51;5.20;;;3.70;;
46643;SDS011;32371;51.032;5.816;2023-05-14T02:38:17;4.68;;;3.28;;
46643;SDS011;32371;51.032;5.816;2023-05-14T02:40:42;8.55;;;3.67;;
46643;SDS011;32371;51.032;5.816;2023-05-14T02:43:08;3.00;;;2.70;;
46643;SDS011;32371;51.032;5.816;2023-05-14T02:45:33;4.45;;;3.40;;
46643;SDS011;32371;51.032;5.816;2023-05-14T02:47:58;7.03;;;3.90;;
46643;SDS011;32371;51.032;5.816;2023-05-14T02:50:24;4.93;;;3.53;;
46643;SDS011;32371;51.032;5.816;2023-05-14T02:52:49;3.70;;;3.13;;
46643;SDS011;32371;51.032;5.816;2023-05-14T02:55:15;4.15;;;2.70;;
46643;SDS011;32371;51.032;5.816;2023-05-14T02:57:40;3.45;;;2.67;;
46643;SDS011;32371;51.032;5.816;2023-05-14T03:00:05;2.58;;;2.38;;
46643;SDS011;32371;51.032;5.816;2023-05-14T03:02:33;6.97;;;2.65;;
46643;SDS011;32371;51.032;5.816;2023-05-14T03:04:59;4.15;;;2.78;;
46643;SDS011;32371;51.032;5.816;2023-05-14T03:07:25;5.53;;;2.90;;
46643;SDS011;32371;51.032;5.816;2023-05-14T03:09:50;4.03;;;3.28;;
46643;SDS011;32371;51.032;5.816;2023-05-14T03:12:16;5.70;;;4.45;;
46643;SDS011;32371;51.032;5.816;2023-05-14T03:14:42;6.28;;;3.88;;
46643;SDS011;32371;51.032;5.816;2023-05-14T03:17:08;5.90;;;3.42;;
46643;SDS011;32371;51.032;5.816;2023-05-14T03:19:33;5.93;;;4.15;;
46643;SDS011;32371;51.032;5.816;2023-05-14T03:21:59;6.30;;;3.85;;
46643;SDS011;32371;51.032;5.816;2023-05-14T03:24:24;4.82;;;3.88;;
46643;SDS011;32371;51.032;5.816;2023-05-14T03:26:49;3.38;;;3.03;;
46643;SDS011;32371;51.032;5.816;2023-05-14T03:29:15;5.32;;;4.70;;
46643;SDS011;32371;51.032;5.816;2023-05-14T03:31:42;10.23;;;5.63;;
46643;SDS011;32371;51.032;5.816;2023-05-14T03:34:07;8.02;;;6.05;;
46643;SDS011;32371;51.032;5.816;2023-05-14T03:36:33;6.95;;;4.82;;
46643;SDS011;32371;51.032;5.816;2023-05-14T03:39:00;6.25;;;5.03;;
46643;SDS011;32371;51.032;5.816;2023-05-14T03:41:25;7.22;;;4.07;;
46643;SDS011;32371;51.032;5.816;2023-05-14T03:43:51;8.18;;;4.28;;
46643;SDS011;32371;51.032;5.816;2023-05-14T03:46:16;5.80;;;4.40;;
46643;SDS011;32371;51.032;5.816;2023-05-14T03:48:42;5.68;;;4.03;;
46643;SDS011;32371;51.032;5.816;2023-05-14T03:51:07;5.68;;;4.78;;
46643;SDS011;32371;51.032;5.816;2023-05-14T03:53:32;7.18;;;5.03;;
46643;SDS011;32371;51.032;5.816;2023-05-14T03:55:58;6.70;;;4.65;;
46643;SDS011;32371;51.032;5.816;2023-05-14T03:58:23;5.50;;;4.70;;
46643;SDS011;32371;51.032;5.816;2023-05-14T04:00:49;8.05;;;5.43;;
46643;SDS011;32371;51.032;5.816;2023-05-14T04:03:15;5.70;;;5.03;;
46643;SDS011;32371;51.032;5.816;2023-05-14T04:05:40;9.18;;;5.38;;
46643;SDS011;32371;51.032;5.816;2023-05-14T04:08:05;8.38;;;4.93;;
46643;SDS011;32371;51.032;5.816;2023-05-14T04:10:31;6.65;;;4.85;;
46643;SDS011;32371;51.032;5.816;2023-05-14T04:12:56;7.03;;;4.70;;
46643;SDS011;32371;51.032;5.816;2023-05-14T04:15:21;7.22;;;6.07;;
46643;SDS011;32371;51.032;5.816;2023-05-14T04:17:47;8.73;;;5.90;;
46643;SDS011;32371;51.032;5.816;2023-05-14T04:20:12;9.30;;;5.40;;
46643;SDS011;32371;51.032;5.816;2023-05-14T04:22:38;5.60;;;5.00;;
46643;SDS011;32371;51.032;5.816;2023-05-14T04:25:03;7.28;;;5.85;;
46643;SDS011;32371;51.032;5.816;2023-05-14T04:27:29;8.50;;;5.90;;
46643;SDS011;32371;51.032;5.816;2023-05-14T04:29:54;6.80;;;5.53;;
46643;SDS011;32371;51.032;5.816;2023-05-14T04:32:20;7.13;;;5.53;;
46643;SDS011;32371;51.032;5.816;2023-05-14T04:34:45;7.35;;;5.28;;
46643;SDS011;32371;51.032;5.816;2023-05-14T04:37:11;5.65;;;4.57;;
46643;SDS011;32371;51.032;5.816;2023-05-14T04:39:37;7.75;;;5.47;;
46643;SDS011;32371;51.032;5.816;2023-05-14T04:42:02;9.48;;;6.15;;
46643;SDS011;32371;51.032;5.816;2023-05-14T04:44:28;10.93;;;6.35;;
46643;SDS011;32371;51.032;5.816;2023-05-14T04:46:53;10.70;;;6.68;;
46643;SDS011;32371;51.032;5.816;2023-05-14T04:49:19;10.43;;;6.93;;
46643;SDS011;32371;51.032;5.816;2023-05-14T04:51:45;8.70;;;6.53;;
46643;SDS011;32371;51.032;5.816;2023-05-14T04:54:11;11.40;;;6.70;;
46643;SDS011;32371;51.032;5.816;2023-05-14T04:56:36;12.98;;;6.75;;
46643;SDS011;32371;51.032;5.816;2023-05-14T04:59:01;7.65;;;6.07;;
46643;SDS011;32371;51.032;5.816;2023-05-14T05:01:27;11.13;;;7.10;;
46643;SDS011;32371;51.032;5.816;2023-05-14T05:03:52;12.20;;;7.20;;
46643;SDS011;32371;51.032;5.816;2023-05-14T05:06:17;9.38;;;6.53;;
46643;SDS011;32371;51.032;5.816;2023-05-14T05:08:43;10.43;;;6.90;;
46643;SDS011;32371;51.032;5.816;2023-05-14T05:11:08;9.65;;;6.28;;
46643;SDS011;32371;51.032;5.816;2023-05-14T05:13:34;11.30;;;6.75;;
46643;SDS011;32371;51.032;5.816;2023-05-14T05:15:59;8.48;;;6.70;;
46643;SDS011;32371;51.032;5.816;2023-05-14T05:18:24;8.32;;;6.43;;
46643;SDS011;32371;51.032;5.816;2023-05-14T05:20:50;8.90;;;6.20;;
46643;SDS011;32371;51.032;5.816;2023-05-14T05:23:15;8.43;;;6.93;;
46643;SDS011;32371;51.032;5.816;2023-05-14T05:25:41;14.60;;;7.20;;
46643;SDS011;32371;51.032;5.816;2023-05-14T05:28:06;12.98;;;6.20;;
46643;SDS011;32371;51.032;5.816;2023-05-14T05:30:31;14.57;;;7.03;;
46643;SDS011;32371;51.032;5.816;2023-05-14T05:32:58;12.50;;;6.82;;
46643;SDS011;32371;51.032;5.816;2023-05-14T05:35:23;12.02;;;7.20;;
46643;SDS011;32371;51.032;5.816;2023-05-14T05:37:49;9.88;;;6.55;;
46643;SDS011;32371;51.032;5.816;2023-05-14T05:40:15;10.95;;;7.20;;
46643;SDS011;32371;51.032;5.816;2023-05-14T05:42:41;11.15;;;7.47;;
46643;SDS011;32371;51.032;5.816;2023-05-14T05:45:08;15.10;;;7.68;;
46643;SDS011;32371;51.032;5.816;2023-05-14T05:47:33;11.35;;;7.68;;
46643;SDS011;32371;51.032;5.816;2023-05-14T05:49:59;13.07;;;7.40;;
46643;SDS011;32371;51.032;5.816;2023-05-14T05:52:24;13.93;;;7.78;;
46643;SDS011;32371;51.032;5.816;2023-05-14T05:54:50;14.77;;;7.18;;
46643;SDS011;32371;51.032;5.816;2023-05-14T05:57:15;11.35;;;7.40;;
46643;SDS011;32371;51.032;5.816;2023-05-14T05:59:40;11.85;;;7.95;;
46643;SDS011;32371;51.032;5.816;2023-05-14T06:02:06;14.68;;;8.65;;
46643;SDS011;32371;51.032;5.816;2023-05-14T06:04:31;12.55;;;7.78;;
46643;SDS011;32371;51.032;5.816;2023-05-14T06:06:56;12.70;;;7.88;;
46643;SDS011;32371;51.032;5.816;2023-05-14T06:09:22;11.15;;;8.65;;
46643;SDS011;32371;51.032;5.816;2023-05-14T06:11:47;15.25;;;8.75;;
46643;SDS011;32371;51.032;5.816;2023-05-14T06:14:12;13.90;;;9.73;;
46643;SDS011;32371;51.032;5.816;2023-05-14T06:16:38;10.00;;;8.20;;
46643;SDS011;32371;51.032;5.816;2023-05-14T06:19:03;17.23;;;8.75;;
46643;SDS011;32371;51.032;5.816;2023-05-14T06:21:29;13.43;;;8.40;;
46643;SDS011;32371;51.032;5.816;2023-05-14T06:23:54;13.30;;;8.50;;
46643;SDS011;32371;51.032;5.816;2023-05-14T06:26:19;14.40;;;8.43;;
46643;SDS011;32371;51.032;5.816;2023-05-14T06:28:45;16.42;;;8.95;;
46643;SDS011;32371;51.032;5.816;2023-05-14T06:31:11;10.65;;;8.30;;
46643;SDS011;32371;51.032;5.816;2023-05-14T06:33:37;16.20;;;8.27;;
46643;SDS011;32371;51.032;5.816;2023-05-14T06:36:03;17.13;;;8.40;;
46643;SDS011;32371;51.032;5.816;2023-05-14T06:38:29;16.42;;;8.73;;
46643;SDS011;32371;51.032;5.816;2023-05-14T06:40:55;14.88;;;8.35;;
46643;SDS011;32371;51.032;5.816;2023-05-14T06:43:20;17.48;;;8.20;;
46643;SDS011;32371;51.032;5.816;2023-05-14T06:45:49;11.25;;;8.43;;
46643;SDS011;32371;51.032;5.816;2023-05-14T06:48:15;11.68;;;8.07;;
46643;SDS011;32371;51.032;5.816;2023-05-14T06:50:42;12.48;;;9.05;;
46643;SDS011;32371;51.032;5.816;2023-05-14T06:53:08;10.82;;;8.75;;
46643;SDS011;32371;51.032;5.816;2023-05-14T06:55:34;17.40;;;8.75;;
46643;SDS011;32371;51.032;5.816;2023-05-14T06:57:59;12.75;;;9.38;;
46643;SDS011;32371;51.032;5.816;2023-05-14T07:00:25;13.90;;;8.57;;
46643;SDS011;32371;51.032;5.816;2023-05-14T07:02:50;14.73;;;9.32;;
46643;SDS011;32371;51.032;5.816;2023-05-14T07:05:16;10.32;;;8.45;;
46643;SDS011;32371;51.032;5.816;2023-05-14T07:07:41;12.85;;;8.45;;
46643;SDS011;32371;51.032;5.816;2023-05-14T07:10:07;11.77;;;9.13;;
46643;SDS011;32371;51.032;5.816;2023-05-14T07:12:32;13.27;;;8.77;;
46643;SDS011;32371;51.032;5.816;2023-05-14T07:14:57;10.32;;;8.15;;
46643;SDS011;32371;51.032;5.816;2023-05-14T07:17:23;12.38;;;8.52;;
46643;SDS011;32371;51.032;5.816;2023-05-14T07:19:48;11.40;;;8.00;;
46643;SDS011;32371;51.032;5.816;2023-05-14T07:22:14;12.52;;;9.00;;
46643;SDS011;32371;51.032;5.816;2023-05-14T07:24:39;13.05;;;9.25;;
46643;SDS011;32371;51.032;5.816;2023-05-14T07:27:04;12.57;;;9.45;;
46643;SDS011;32371;51.032;5.816;2023-05-14T07:29:30;10.18;;;8.77;;
46643;SDS011;32371;51.032;5.816;2023-05-14T07:31:58;11.93;;;8.80;;
46643;SDS011;32371;51.032;5.816;2023-05-14T07:34:24;13.95;;;8.45;;
46643;SDS011;32371;51.032;5.816;2023-05-14T07:36:50;11.02;;;8.02;;
46643;SDS011;32371;51.032;5.816;2023-05-14T07:39:15;12.40;;;8.73;;
46643;SDS011;32371;51.032;5.816;2023-05-14T07:41:41;15.40;;;8.55;;
46643;SDS011;32371;51.032;5.816;2023-05-14T07:44:06;12.95;;;8.75;;
46643;SDS011;32371;51.032;5.816;2023-05-14T07:46:32;11.85;;;8.80;;
46643;SDS011;32371;51.032;5.816;2023-05-14T07:48:57;15.00;;;9.77;;
46643;SDS011;32371;51.032;5.816;2023-05-14T07:51:23;12.25;;;8.77;;
46643;SDS011;32371;51.032;5.816;2023-05-14T07:53:52;11.00;;;8.45;;
46643;SDS011;32371;51.032;5.816;2023-05-14T07:56:21;17.33;;;9.48;;
46643;SDS011;32371;51.032;5.816;2023-05-14T07:58:46;13.60;;;9.52;;
46643;SDS011;32371;51.032;5.816;2023-05-14T08:01:12;10.93;;;9.20;;
46643;SDS011;32371;51.032;5.816;2023-05-14T08:03:38;11.95;;;8.48;;
46643;SDS011;32371;51.032;5.816;2023-05-14T08:06:03;15.93;;;9.13;;
46643;SDS011;32371;51.032;5.816;2023-05-14T08:08:29;14.90;;;10.15;;
46643;SDS011;32371;51.032;5.816;2023-05-14T08:10:54;13.18;;;8.80;;
46643;SDS011;32371;51.032;5.816;2023-05-14T08:13:20;15.63;;;9.75;;
46643;SDS011;32371;51.032;5.816;2023-05-14T08:15:45;15.20;;;10.18;;
46643;SDS011;32371;51.032;5.816;2023-05-14T08:18:11;15.30;;;9.00;;
46643;SDS011;32371;51.032;5.816;2023-05-14T08:20:36;10.60;;;8.35;;
46643;SDS011;32371;51.032;5.816;2023-05-14T08:23:02;15.52;;;10.32;;
46643;SDS011;32371;51.032;5.816;2023-05-14T08:25:27;12.05;;;8.55;;
46643;SDS011;32371;51.032;5.816;2023-05-14T08:27:52;12.00;;;9.40;;
46643;SDS011;32371;51.032;5.816;2023-05-14T08:30:18;11.85;;;8.52;;
46643;SDS011;32371;51.032;5.816;2023-05-14T08:32:44;12.18;;;9.88;;
46643;SDS011;32371;51.032;5.816;2023-05-14T08:35:09;14.88;;;9.27;;
46643;SDS011;32371;51.032;5.816;2023-05-14T08:37:35;11.50;;;8.75;;
46643;SDS011;32371;51.032;5.816;2023-05-14T08:40:00;14.02;;;9.43;;
46643;SDS011;32371;51.032;5.816;2023-05-14T08:42:26;15.52;;;10.55;;
46643;SDS011;32371;51.032;5.816;2023-05-14T08:44:56;21.17;;;9.27;;
46643;SDS011;32371;51.032;5.816;2023-05-14T08:47:26;14.43;;;9.93;;
46643;SDS011;32371;51.032;5.816;2023-05-14T08:50:00;12.90;;;9.32;;
46643;SDS011;32371;51.032;5.816;2023-05-14T08:52:28;14.10;;;9.90;;
46643;SDS011;32371;51.032;5.816;2023-05-14T08:54:54;13.68;;;8.93;;
46643;SDS011;32371;51.032;5.816;2023-05-14T08:57:20;15.30;;;9.82;;
46643;SDS011;32371;51.032;5.816;2023-05-14T08:59:49;13.48;;;9.77;;
46643;SDS011;32371;51.032;5.816;2023-05-14T09:02:19;16.08;;;9.32;;
46643;SDS011;32371;51.032;5.816;2023-05-14T09:04:47;14.60;;;9.07;;
46643;SDS011;32371;51.032;5.816;2023-05-14T09:07:16;13.38;;;9.93;;
46643;SDS011;32371;51.032;5.816;2023-05-14T09:09:41;12.65;;;8.88;;
46643;SDS011;32371;51.032;5.816;2023-05-14T09:12:09;13.98;;;9.30;;
46643;SDS011;32371;51.032;5.816;2023-05-14T09:14:34;9.98;;;8.70;;
46643;SDS011;32371;51.032;5.816;2023-05-14T09:16:59;14.25;;;8.90;;
46643;SDS011;32371;51.032;5.816;2023-05-14T09:19:25;14.27;;;9.38;;
46643;SDS011;32371;51.032;5.816;2023-05-14T09:21:51;13.48;;;8.27;;
46643;SDS011;32371;51.032;5.816;2023-05-14T09:24:19;11.38;;;6.88;;
46643;SDS011;32371;51.032;5.816;2023-05-14T09:26:48;18.45;;;9.07;;
46643;SDS011;32371;51.032;5.816;2023-05-14T09:29:14;53.72;;;10.95;;
46643;SDS011;32371;51.032;5.816;2023-05-14T09:31:39;14.38;;;8.43;;
46643;SDS011;32371;51.032;5.816;2023-05-14T09:34:05;11.68;;;7.78;;
46643;SDS011;32371;51.032;5.816;2023-05-14T09:36:31;12.75;;;9.02;;
46643;SDS011;32371;51.032;5.816;2023-05-14T09:38:59;15.50;;;8.77;;
46643;SDS011;32371;51.032;5.816;2023-05-14T09:41:24;11.00;;;9.43;;
46643;SDS011;32371;51.032;5.816;2023-05-14T09:43:50;13.80;;;10.18;;
46643;SDS011;32371;51.032;5.816;2023-05-14T09:46:15;18.42;;;10.13;;
46643;SDS011;32371;51.032;5.816;2023-05-14T09:48:41;12.10;;;9.20;;
46643;SDS011;32371;51.032;5.816;2023-05-14T09:51:08;11.88;;;9.65;;
46643;SDS011;32371;51.032;5.816;2023-05-14T09:53:33;13.48;;;8.68;;
46643;SDS011;32371;51.032;5.816;2023-05-14T09:55:59;11.48;;;8.95;;
46643;SDS011;32371;51.032;5.816;2023-05-14T09:58:25;11.63;;;8.73;;
46643;SDS011;32371;51.032;5.816;2023-05-14T10:00:50;12.50;;;8.82;;
46643;SDS011;32371;51.032;5.816;2023-05-14T10:03:16;10.77;;;8.43;;
46643;SDS011;32371;51.032;5.816;2023-05-14T10:05:42;11.02;;;8.43;;
46643;SDS011;32371;51.032;5.816;2023-05-14T10:08:11;10.60;;;8.30;;
46643;SDS011;32371;51.032;5.816;2023-05-14T10:10:38;10.75;;;6.75;;
46643;SDS011;32371;51.032;5.816;2023-05-14T10:13:06;12.23;;;7.97;;
46643;SDS011;32371;51.032;5.816;2023-05-14T10:18:26;10.60;;;7.88;;
46643;SDS011;32371;51.032;5.816;2023-05-14T10:20:56;12.65;;;7.63;;
46643;SDS011;32371;51.032;5.816;2023-05-14T10:23:27;12.23;;;7.93;;
46643;SDS011;32371;51.032;5.816;2023-05-14T10:25:53;10.82;;;7.72;;
46643;SDS011;32371;51.032;5.816;2023-05-14T10:28:19;13.05;;;7.35;;
46643;SDS011;32371;51.032;5.816;2023-05-14T10:30:44;12.90;;;7.68;;
46643;SDS011;32371;51.032;5.816;2023-05-14T10:33:11;10.13;;;8.02;;
46643;SDS011;32371;51.032;5.816;2023-05-14T10:38:34;12.73;;;8.40;;
46643;SDS011;32371;51.032;5.816;2023-05-14T10:43:26;8.13;;;6.88;;
46643;SDS011;32371;51.032;5.816;2023-05-14T10:45:55;9.13;;;7.88;;
46643;SDS011;32371;51.032;5.816;2023-05-14T10:48:22;11.10;;;8.50;;
46643;SDS011;32371;51.032;5.816;2023-05-14T10:50:49;10.57;;;9.48;;
46643;SDS011;32371;51.032;5.816;2023-05-14T10:53:15;9.20;;;8.20;;
46643;SDS011;32371;51.032;5.816;2023-05-14T10:55:41;10.27;;;7.93;;
46643;SDS011;32371;51.032;5.816;2023-05-14T10:58:07;9.90;;;7.50;;
46643;SDS011;32371;51.032;5.816;2023-05-14T11:00:34;15.35;;;9.25;;
46643;SDS011;32371;51.032;5.816;2023-05-14T11:03:02;9.38;;;8.27;;
46643;SDS011;32371;51.032;5.816;2023-05-14T11:05:28;9.50;;;8.00;;
46643;SDS011;32371;51.032;5.816;2023-05-14T11:07:54;11.52;;;7.22;;
46643;SDS011;32371;51.032;5.816;2023-05-14T11:10:22;11.43;;;7.65;;
46643;SDS011;32371;51.032;5.816;2023-05-14T11:12:50;16.85;;;9.27;;
46643;SDS011;32371;51.032;5.816;2023-05-14T11:15:16;9.25;;;7.80;;
46643;SDS011;32371;51.032;5.816;2023-05-14T11:17:44;9.02;;;8.13;;
46643;SDS011;32371;51.032;5.816;2023-05-14T11:20:10;10.52;;;8.30;;
46643;SDS011;32371;51.032;5.816;2023-05-14T11:22:37;11.25;;;8.93;;
46643;SDS011;32371;51.032;5.816;2023-05-14T11:25:03;13.63;;;8.75;;
46643;SDS011;32371;51.032;5.816;2023-05-14T11:27:30;13.18;;;8.52;;
46643;SDS011;32371;51.032;5.816;2023-05-14T11:29:57;14.70;;;8.70;;
46643;SDS011;32371;51.032;5.816;2023-05-14T11:32:24;10.95;;;8.52;;
46643;SDS011;32371;51.032;5.816;2023-05-14T11:34:50;11.68;;;7.50;;
46643;SDS011;32371;51.032;5.816;2023-05-14T11:37:15;11.48;;;9.65;;
46643;SDS011;32371;51.032;5.816;2023-05-14T11:39:48;10.45;;;7.03;;
46643;SDS011;32371;51.032;5.816;2023-05-14T11:42:14;10.00;;;7.05;;
46643;SDS011;32371;51.032;5.816;2023-05-14T11:44:42;22.67;;;9.95;;
46643;SDS011;32371;51.032;5.816;2023-05-14T11:47:08;7.95;;;7.13;;
46643;SDS011;32371;51.032;5.816;2023-05-14T11:49:35;9.50;;;7.55;;
46643;SDS011;32371;51.032;5.816;2023-05-14T11:52:02;18.15;;;10.23;;
46643;SDS011;32371;51.032;5.816;2023-05-14T11:54:29;13.38;;;8.63;;
46643;SDS011;32371;51.032;5.816;2023-05-14T11:56:56;9.60;;;8.23;;
46643;SDS011;32371;51.032;5.816;2023-05-14T11:59:29;8.48;;;7.03;;
46643;SDS011;32371;51.032;5.816;2023-05-14T12:01:55;7.78;;;6.97;;
46643;SDS011;32371;51.032;5.816;2023-05-14T12:04:21;11.07;;;7.20;;
46643;SDS011;32371;51.032;5.816;2023-05-14T12:06:50;7.65;;;6.18;;
46643;SDS011;32371;51.032;5.816;2023-05-14T12:09:17;8.23;;;6.28;;
46643;SDS011;32371;51.032;5.816;2023-05-14T12:11:43;7.65;;;6.40;;
46643;SDS011;32371;51.032;5.816;2023-05-14T12:14:14;8.85;;;6.28;;
46643;SDS011;32371;51.032;5.816;2023-05-14T12:16:43;12.18;;;7.32;;
46643;SDS011;32371;51.032;5.816;2023-05-14T12:19:10;8.52;;;6.00;;
46643;SDS011;32371;51.032;5.816;2023-05-14T12:21:37;11.10;;;6.75;;
46643;SDS011;32371;51.032;5.816;2023-05-14T12:24:03;7.05;;;6.05;;
46643;SDS011;32371;51.032;5.816;2023-05-14T12:26:31;10.98;;;6.40;;
46643;SDS011;32371;51.032;5.816;2023-05-14T12:29:01;9.07;;;5.85;;
46643;SDS011;32371;51.032;5.816;2023-05-14T12:31:28;9.07;;;7.10;;
46643;SDS011;32371;51.032;5.816;2023-05-14T12:33:53;6.88;;;5.35;;
46643;SDS011;32371;51.032;5.816;2023-05-14T12:36:19;7.97;;;4.72;;
46643;SDS011;32371;51.032;5.816;2023-05-14T12:38:44;8.93;;;4.68;;
46643;SDS011;32371;51.032;5.816;2023-05-14T12:41:10;12.35;;;5.72;;
46643;SDS011;32371;51.032;5.816;2023-05-14T12:43:35;8.60;;;6.13;;
46643;SDS011;32371;51.032;5.816;2023-05-14T12:46:01;9.13;;;5.60;;
46643;SDS011;32371;51.032;5.816;2023-05-14T12:48:26;8.18;;;6.03;;
46643;SDS011;32371;51.032;5.816;2023-05-14T12:50:51;6.13;;;4.30;;
46643;SDS011;32371;51.032;5.816;2023-05-14T12:53:17;7.30;;;5.18;;
46643;SDS011;32371;51.032;5.816;2023-05-14T12:55:42;7.90;;;5.28;;
46643;SDS011;32371;51.032;5.816;2023-05-14T12:58:08;14.85;;;5.30;;
46643;SDS011;32371;51.032;5.816;2023-05-14T13:00:33;7.47;;;4.60;;
46643;SDS011;32371;51.032;5.816;2023-05-14T13:02:58;5.38;;;4.07;;
46643;SDS011;32371;51.032;5.816;2023-05-14T13:05:24;7.88;;;5.05;;
46643;SDS011;32371;51.032;5.816;2023-05-14T13:07:50;5.60;;;4.35;;
46643;SDS011;32371;51.032;5.816;2023-05-14T13:10:16;5.50;;;4.30;;
46643;SDS011;32371;51.032;5.816;2023-05-14T13:12:42;4.82;;;3.78;;
46643;SDS011;32371;51.032;5.816;2023-05-14T13:15:08;6.82;;;4.60;;
46643;SDS011;32371;51.032;5.816;2023-05-14T13:17:34;9.00;;;4.47;;
46643;SDS011;32371;51.032;5.816;2023-05-14T13:20:00;7.75;;;4.53;;
46643;SDS011;32371;51.032;5.816;2023-05-14T13:22:25;6.55;;;4.22;;
46643;SDS011;32371;51.032;5.816;2023-05-14T13:24:50;5.60;;;3.90;;
46643;SDS011;32371;51.032;5.816;2023-05-14T13:27:16;5.32;;;3.55;;
46643;SDS011;32371;51.032;5.816;2023-05-14T13:29:41;4.68;;;3.50;;
46643;SDS011;32371;51.032;5.816;2023-05-14T13:32:06;5.38;;;4.22;;
46643;SDS011;32371;51.032;5.816;2023-05-14T13:34:32;5.75;;;4.38;;
46643;SDS011;32371;51.032;5.816;2023-05-14T13:36:57;8.80;;;3.90;;
46643;SDS011;32371;51.032;5.816;2023-05-14T13:39:23;7.55;;;3.85;;
46643;SDS011;32371;51.032;5.816;2023-05-14T13:41:51;4.32;;;3.17;;
46643;SDS011;32371;51.032;5.816;2023-05-14T13:44:17;4.40;;;3.08;;
46643;SDS011;32371;51.032;5.816;2023-05-14T13:46:42;4.32;;;3.65;;
46643;SDS011;32371;51.032;5.816;2023-05-14T13:49:07;5.90;;;3.03;;
46643;SDS011;32371;51.032;5.816;2023-05-14T13:51:33;4.47;;;2.65;;
46643;SDS011;32371;51.032;5.816;2023-05-14T13:53:58;4.50;;;2.95;;
46643;SDS011;32371;51.032;5.816;2023-05-14T13:56:24;5.00;;;3.05;;
46643;SDS011;32371;51.032;5.816;2023-05-14T13:58:49;5.32;;;2.97;;
46643;SDS011;32371;51.032;5.816;2023-05-14T14:01:15;4.13;;;2.50;;
46643;SDS011;32371;51.032;5.816;2023-05-14T14:03:40;4.30;;;2.67;;
46643;SDS011;32371;51.032;5.816;2023-05-14T14:06:06;6.07;;;2.45;;
46643;SDS011;32371;51.032;5.816;2023-05-14T14:08:31;4.45;;;3.60;;
46643;SDS011;32371;51.032;5.816;2023-05-14T14:10:57;4.63;;;2.92;;
46643;SDS011;32371;51.032;5.816;2023-05-14T14:13:22;3.33;;;2.53;;
46643;SDS011;32371;51.032;5.816;2023-05-14T14:15:48;3.65;;;2.75;;
46643;SDS011;32371;51.032;5.816;2023-05-14T14:18:14;4.43;;;2.60;;
46643;SDS011;32371;51.032;5.816;2023-05-14T14:20:39;4.40;;;2.80;;
46643;SDS011;32371;51.032;5.816;2023-05-14T14:23:06;3.05;;;2.75;;
46643;SDS011;32371;51.032;5.816;2023-05-14T14:25:32;5.10;;;2.67;;
46643;SDS011;32371;51.032;5.816;2023-05-14T14:27:57;2.90;;;2.65;;
46643;SDS011;32371;51.032;5.816;2023-05-14T14:30:22;6.80;;;3.15;;
46643;SDS011;32371;51.032;5.816;2023-05-14T14:32:48;4.47;;;2.75;;
46643;SDS011;32371;51.032;5.816;2023-05-14T14:35:14;3.25;;;2.58;;
46643;SDS011;32371;51.032;5.816;2023-05-14T14:37:41;3.42;;;3.08;;
46643;SDS011;32371;51.032;5.816;2023-05-14T14:40:09;3.72;;;2.83;;
46643;SDS011;32371;51.032;5.816;2023-05-14T14:42:35;10.38;;;3.60;;
46643;SDS011;32371;51.032;5.816;2023-05-14T14:45:02;4.72;;;2.72;;
46643;SDS011;32371;51.032;5.816;2023-05-14T14:47:30;9.25;;;2.72;;